createdAt,value
2023-03-05T00:01:36.038Z,4.83
2023-03-05T00:04:04.644Z,3.63
2023-03-05T00:06:32.168Z,6.80
2023-03-05T00:08:59.005Z,3.53
2023-03-05T00:11:28.273Z,5.70
2023-03-05T00:13:55.341Z,6.60
2023-03-05T00:16:23.049Z,4.57
2023-03-05T00:18:50.116Z,8.07
2023-03-05T00:21:19.806Z,4.57
2023-03-05T00:23:46.693Z,4.63
2023-03-05T00:26:13.483Z,2.87
2023-03-05T00:28:40.961Z,4.33
2023-03-05T00:31:07.973Z,6.30
2023-03-05T00:33:34.940Z,4.77
2023-03-05T00:36:05.144Z,6.03
2023-03-05T00:38:32.060Z,5.60
2023-03-05T00:40:58.882Z,6.73
2023-03-05T00:43:25.931Z,8.30
2023-03-05T00:45:52.697Z,5.87
2023-03-05T00:48:19.696Z,4.40
2023-03-05T00:50:46.543Z,5.27
2023-03-05T00:53:13.632Z,5.40
2023-03-05T00:55:40.478Z,7.70
2023-03-05T00:58:07.349Z,6.37
2023-03-05T01:00:34.233Z,6.03
2023-03-05T01:03:00.976Z,4.07
2023-03-05T01:05:28.037Z,4.77
2023-03-05T01:07:55.770Z,10.57
2023-03-05T01:10:23.982Z,7.93
2023-03-05T01:12:50.714Z,8.23
2023-03-05T01:15:17.558Z,6.83
2023-03-05T01:17:44.442Z,6.67
2023-03-05T01:20:13.496Z,9.53
2023-03-05T01:22:40.437Z,8.47
2023-03-05T01:25:07.786Z,8.10
2023-03-05T01:27:34.531Z,11.67
2023-03-05T01:30:01.680Z,10.97
2023-03-05T01:32:28.616Z,10.03
2023-03-05T01:34:55.557Z,11.37
2023-03-05T01:37:22.296Z,9.73
2023-03-05T01:39:49.136Z,11.00
2023-03-05T01:42:15.931Z,10.00
2023-03-05T01:44:59.619Z,9.90
2023-03-05T01:47:26.548Z,8.20
2023-03-05T01:49:54.542Z,9.90
2023-03-05T01:52:23.263Z,4.73
2023-03-05T01:54:53.218Z,7.13
2023-03-05T01:57:21.996Z,7.17
2023-03-05T01:59:50.502Z,8.03
2023-03-05T02:02:18.528Z,7.57
2023-03-05T02:04:47.304Z,6.90
2023-03-05T02:07:14.711Z,7.77
2023-03-05T02:09:42.018Z,5.43
2023-03-05T02:12:09.384Z,6.03
2023-03-05T02:14:37.299Z,4.33
2023-03-05T02:17:04.957Z,5.90
2023-03-05T02:19:46.243Z,5.87
2023-03-05T02:22:17.315Z,4.90
2023-03-05T02:24:44.508Z,6.53
2023-03-05T02:27:12.871Z,5.20
2023-03-05T02:29:42.062Z,7.70
2023-03-05T02:32:09.769Z,6.90
2023-03-05T02:34:36.679Z,7.50
2023-03-05T02:37:04.853Z,4.97
2023-03-05T02:39:33.845Z,7.90
2023-03-05T02:42:00.609Z,7.27
2023-03-05T02:44:28.728Z,4.93
2023-03-05T02:46:55.497Z,8.97
2023-03-05T02:49:22.427Z,9.10
2023-03-05T02:51:49.240Z,6.00
2023-03-05T02:54:17.167Z,6.90
2023-03-05T02:56:44.118Z,5.93
2023-03-05T02:59:11.020Z,7.10
2023-03-05T03:01:37.825Z,8.57
2023-03-05T03:04:04.839Z,6.57
2023-03-05T03:06:31.620Z,5.83
2023-03-05T03:08:58.559Z,3.73
2023-03-05T03:11:25.792Z,4.70
2023-03-05T03:13:52.679Z,6.83
2023-03-05T03:16:19.563Z,5.63
2023-03-05T03:18:48.848Z,4.80
2023-03-05T03:21:20.529Z,6.90
2023-03-05T03:23:47.336Z,5.50
2023-03-05T03:26:14.314Z,3.23
2023-03-05T03:28:41.543Z,4.87
2023-03-05T03:31:08.749Z,7.33
2023-03-05T03:33:35.758Z,4.80
2023-03-05T03:36:03.866Z,5.57
2023-03-05T03:38:30.652Z,6.60
2023-03-05T03:40:57.860Z,3.43
2023-03-05T03:43:24.930Z,4.10
2023-03-05T03:45:51.784Z,4.27
2023-03-05T03:48:19.311Z,7.50
2023-03-05T03:50:46.040Z,5.30
2023-03-05T03:53:14.480Z,5.20
2023-03-05T03:55:42.950Z,6.40
2023-03-05T03:58:09.821Z,6.93
2023-03-05T04:00:36.966Z,5.97
2023-03-05T04:03:03.761Z,3.17
2023-03-05T04:05:30.793Z,6.53
2023-03-05T04:07:58.712Z,4.73
2023-03-05T04:10:25.939Z,7.17
2023-03-05T04:12:52.948Z,4.57
2023-03-05T04:15:20.139Z,3.17
2023-03-05T04:17:47.112Z,3.53
2023-03-05T04:20:13.928Z,7.37
2023-03-05T04:22:40.759Z,7.53
2023-03-05T04:25:08.588Z,7.53
2023-03-05T04:27:37.667Z,6.50
2023-03-05T04:30:04.926Z,8.40
2023-03-05T04:32:31.828Z,6.90
2023-03-05T04:34:59.036Z,6.00
2023-03-05T04:37:26.617Z,8.03
2023-03-05T04:39:53.536Z,7.03
2023-03-05T04:42:21.278Z,7.23
2023-03-05T04:44:51.610Z,8.30
2023-03-05T04:47:18.993Z,8.57
2023-03-05T04:49:46.009Z,9.77
2023-03-05T04:52:13.765Z,7.93
2023-03-05T04:54:40.500Z,9.20
2023-03-05T04:57:07.382Z,8.00
2023-03-05T04:59:34.252Z,7.17
2023-03-05T05:02:01.152Z,7.33
2023-03-05T05:04:27.912Z,6.83
2023-03-05T05:06:55.492Z,7.53
2023-03-05T05:09:22.415Z,7.23
2023-03-05T05:11:49.224Z,8.07
2023-03-05T05:14:16.025Z,5.83
2023-03-05T05:16:43.094Z,5.20
2023-03-05T05:19:09.895Z,5.50
2023-03-05T05:21:36.782Z,5.27
2023-03-05T05:24:03.641Z,6.03
2023-03-05T05:26:30.804Z,5.07
2023-03-05T05:28:57.640Z,7.77
2023-03-05T05:31:24.430Z,7.87
2023-03-05T05:33:51.318Z,6.00
2023-03-05T05:36:19.480Z,11.20
2023-03-05T05:38:46.328Z,5.20
2023-03-05T05:41:15.177Z,5.47
2023-03-05T05:43:42.321Z,7.67
2023-03-05T05:46:11.869Z,4.67
2023-03-05T05:48:38.750Z,6.20
2023-03-05T05:51:13.279Z,5.97
2023-03-05T05:53:40.352Z,5.83
2023-03-05T05:56:08.174Z,10.53
2023-03-05T05:58:35.535Z,5.00
2023-03-05T06:01:02.959Z,5.83
2023-03-05T06:03:29.864Z,9.20
2023-03-05T06:05:57.084Z,6.83
2023-03-05T06:08:23.822Z,5.67
2023-03-05T06:10:54.060Z,8.37
2023-03-05T06:13:20.948Z,10.43
2023-03-05T06:15:55.468Z,7.90
2023-03-05T06:18:22.384Z,10.47
2023-03-05T06:20:59.189Z,7.37
2023-03-05T06:23:26.587Z,10.70
2023-03-05T06:25:54.007Z,6.37
2023-03-05T06:28:21.168Z,8.23
2023-03-05T06:30:48.755Z,8.80
2023-03-05T06:33:15.587Z,7.67
2023-03-05T06:35:42.674Z,9.23
2023-03-05T06:38:09.684Z,7.93
2023-03-05T06:40:39.352Z,8.57
2023-03-05T06:43:06.451Z,6.90
2023-03-05T06:45:33.364Z,9.20
2023-03-05T06:48:00.146Z,7.50
2023-03-05T06:50:27.060Z,9.00
2023-03-05T06:52:53.874Z,8.40
2023-03-05T06:55:21.148Z,8.23
2023-03-05T06:57:47.905Z,8.67
2023-03-05T07:00:14.970Z,12.40
2023-03-05T07:02:41.868Z,10.20
2023-03-05T07:05:09.150Z,11.80
2023-03-05T07:07:36.217Z,10.53
2023-03-05T07:10:03.672Z,10.70
2023-03-05T07:12:30.530Z,10.57
2023-03-05T07:14:57.424Z,10.83
2023-03-05T07:17:24.162Z,9.87
2023-03-05T07:19:51.031Z,9.27
2023-03-05T07:22:17.816Z,10.93
2023-03-05T07:24:44.791Z,11.43
2023-03-05T07:27:11.572Z,10.17
2023-03-05T07:29:38.698Z,12.17
2023-03-05T07:32:05.834Z,12.13
2023-03-05T07:34:32.567Z,11.30
2023-03-05T07:36:59.431Z,14.37
2023-03-05T07:39:26.173Z,14.10
2023-03-05T07:41:53.073Z,10.73
2023-03-05T07:44:27.798Z,12.50
2023-03-05T07:46:54.697Z,12.77
2023-03-05T07:49:21.451Z,14.60
2023-03-05T07:51:48.300Z,16.20
2023-03-05T07:54:15.089Z,17.73
2023-03-05T07:56:41.925Z,18.27
2023-03-05T07:59:11.184Z,16.40
2023-03-05T08:01:38.173Z,18.30
2023-03-05T08:04:05.990Z,17.20
2023-03-05T08:06:32.851Z,16.53
2023-03-05T08:09:00.018Z,17.17
2023-03-05T08:11:26.901Z,14.43
2023-03-05T08:13:53.701Z,15.47
2023-03-05T08:16:21.807Z,24.37
2023-03-05T08:18:48.694Z,21.00
2023-03-05T08:21:35.745Z,21.17
2023-03-05T08:24:04.259Z,19.20
2023-03-05T08:26:32.001Z,21.03
2023-03-05T08:28:59.034Z,21.33
2023-03-05T08:31:26.985Z,22.27
2023-03-05T08:33:54.888Z,19.97
2023-03-05T08:36:21.674Z,23.90
2023-03-05T08:38:50.697Z,21.73
2023-03-05T08:41:18.147Z,20.63
2023-03-05T08:43:45.115Z,23.13
2023-03-05T08:46:12.840Z,24.33
2023-03-05T08:48:39.661Z,30.07
2023-03-05T08:51:13.928Z,25.10
2023-03-05T08:53:41.412Z,21.53
2023-03-05T08:56:08.381Z,58.73
2023-03-05T08:58:35.193Z,59.77
2023-03-05T09:01:02.732Z,63.50
2023-03-05T09:03:29.615Z,68.63
2023-03-05T09:06:03.025Z,39.57
2023-03-05T09:08:30.300Z,40.30
2023-03-05T09:10:57.656Z,37.73
2023-03-05T09:13:24.529Z,31.53
2023-03-05T09:15:58.643Z,31.97
2023-03-05T09:18:25.788Z,29.40
2023-03-05T09:20:52.823Z,28.77
2023-03-05T09:23:19.730Z,27.63
2023-03-05T09:25:46.560Z,20.53
2023-03-05T09:28:13.494Z,31.33
2023-03-05T09:30:40.396Z,22.97
2023-03-05T09:33:07.496Z,23.70
2023-03-05T09:35:35.390Z,23.00
2023-03-05T09:38:02.654Z,27.37
2023-03-05T09:40:41.863Z,20.37
2023-03-05T09:43:14.847Z,23.63
2023-03-05T09:45:59.044Z,27.23
2023-03-05T09:48:46.629Z,26.13
2023-03-05T09:51:16.914Z,28.57
2023-03-05T09:54:01.584Z,21.63
2023-03-05T09:56:36.085Z,24.97
2023-03-05T09:59:09.850Z,23.03
2023-03-05T10:01:39.156Z,32.17
2023-03-05T10:04:09.060Z,28.37
2023-03-05T10:06:37.222Z,24.90
2023-03-05T10:09:07.040Z,21.00
2023-03-05T10:11:36.762Z,27.70
2023-03-05T10:14:04.186Z,19.13
2023-03-05T10:16:43.291Z,16.67
2023-03-05T10:19:10.164Z,25.03
2023-03-05T10:21:42.719Z,25.03
2023-03-05T10:24:17.562Z,23.17
2023-03-05T10:27:03.284Z,14.80
2023-03-05T10:29:39.028Z,18.63
2023-03-05T10:32:26.105Z,14.67
2023-03-05T10:35:01.852Z,16.07
2023-03-05T10:37:28.669Z,19.23
2023-03-05T10:39:55.499Z,11.10
2023-03-05T10:42:30.785Z,18.97
2023-03-05T10:44:59.356Z,22.90
2023-03-05T10:47:26.091Z,20.37
2023-03-05T10:49:54.200Z,21.93
2023-03-05T10:52:35.335Z,15.67
2023-03-05T10:55:02.336Z,13.07
2023-03-05T10:57:31.578Z,12.07
2023-03-05T11:00:01.252Z,13.90
2023-03-05T11:02:28.227Z,13.33
2023-03-05T11:04:55.546Z,13.77
2023-03-05T11:07:25.426Z,10.80
2023-03-05T11:10:04.321Z,8.87
2023-03-05T11:12:34.876Z,13.53
2023-03-05T11:15:01.617Z,24.03
2023-03-05T11:17:39.531Z,15.67
2023-03-05T11:20:25.287Z,20.67
2023-03-05T11:23:12.112Z,10.23
2023-03-05T11:25:54.416Z,8.90
2023-03-05T11:28:32.224Z,11.37
2023-03-05T11:31:05.044Z,12.63
2023-03-05T11:33:32.125Z,11.47
2023-03-05T11:36:13.191Z,8.43
2023-03-05T11:39:06.303Z,9.07
2023-03-05T11:41:41.427Z,10.30
2023-03-05T11:44:34.733Z,13.87
2023-03-05T11:47:20.094Z,7.50
2023-03-05T11:49:48.913Z,13.23
2023-03-05T11:52:22.340Z,9.50
2023-03-05T11:55:01.184Z,11.30
2023-03-05T11:57:29.424Z,10.30
2023-03-05T11:59:56.695Z,14.43
2023-03-05T12:02:24.258Z,10.43
2023-03-05T12:04:51.567Z,10.07
2023-03-05T12:07:33.300Z,10.60
2023-03-05T12:10:01.226Z,14.27
2023-03-05T12:12:28.817Z,14.97
2023-03-05T12:15:02.413Z,13.27
2023-03-05T12:17:33.613Z,20.70
2023-03-05T12:20:05.299Z,22.10
2023-03-05T12:22:34.422Z,13.57
2023-03-05T12:25:19.953Z,12.73
2023-03-05T12:27:47.166Z,11.50
2023-03-05T12:30:32.665Z,12.10
2023-03-05T12:33:00.187Z,12.73
2023-03-05T12:35:30.932Z,11.00
2023-03-05T12:37:59.005Z,15.27
2023-03-05T12:40:27.051Z,15.50
2023-03-05T12:42:58.222Z,8.43
2023-03-05T12:45:26.552Z,12.77
2023-03-05T12:47:53.404Z,20.50
2023-03-05T12:50:29.472Z,12.50
2023-03-05T12:53:10.471Z,16.53
2023-03-05T12:55:41.092Z,13.30
2023-03-05T12:58:10.903Z,18.13
2023-03-05T13:00:40.720Z,14.17
2023-03-05T13:03:10.048Z,9.53
2023-03-05T13:05:37.694Z,13.77
2023-03-05T13:08:20.413Z,11.03
2023-03-05T13:11:13.641Z,11.27
2023-03-05T13:13:44.850Z,13.33
2023-03-05T13:16:19.163Z,11.73
2023-03-05T13:18:47.585Z,15.07
2023-03-05T13:21:15.685Z,14.60
2023-03-05T13:23:46.799Z,13.77
2023-03-05T13:26:20.785Z,11.83
2023-03-05T13:29:05.400Z,14.70
2023-03-05T13:31:32.316Z,11.77
2023-03-05T13:34:05.950Z,13.20
2023-03-05T13:36:33.353Z,13.87
2023-03-05T13:39:00.887Z,8.97
2023-03-05T13:41:28.330Z,12.30
2023-03-05T13:43:55.182Z,10.77
2023-03-05T13:46:24.926Z,13.87
2023-03-05T13:48:52.010Z,18.10
2023-03-05T13:51:19.095Z,10.50
2023-03-05T13:53:46.282Z,18.37
2023-03-05T13:56:15.635Z,17.07
2023-03-05T13:58:50.906Z,23.53
2023-03-05T14:01:18.190Z,21.40
2023-03-05T14:03:46.367Z,19.70
2023-03-05T14:06:13.487Z,23.50
2023-03-05T14:08:40.667Z,20.10
2023-03-05T14:11:17.545Z,19.30
2023-03-05T14:13:44.998Z,21.87
2023-03-05T14:16:15.996Z,20.30
2023-03-05T14:18:56.981Z,18.73
2023-03-05T14:21:24.333Z,21.07
2023-03-05T14:23:54.970Z,21.00
2023-03-05T14:26:21.949Z,17.27
2023-03-05T14:29:00.611Z,31.77
2023-03-05T14:31:28.251Z,17.80
2023-03-05T14:34:00.087Z,22.50
2023-03-05T14:36:29.286Z,17.77
2023-03-05T14:38:57.025Z,13.77
2023-03-05T14:41:33.070Z,16.67
2023-03-05T14:43:59.934Z,15.77
2023-03-05T14:46:27.255Z,15.57
2023-03-05T14:48:54.580Z,13.50
2023-03-05T14:51:21.993Z,14.77
2023-03-05T14:53:51.200Z,17.60
2023-03-05T14:56:22.054Z,21.90
2023-03-05T14:58:48.936Z,22.07
2023-03-05T15:01:15.792Z,23.57
2023-03-05T15:03:42.667Z,12.60
2023-03-05T15:06:31.272Z,14.20
2023-03-05T15:08:58.123Z,8.27
2023-03-05T15:11:25.039Z,11.20
2023-03-05T15:13:51.912Z,15.40
2023-03-05T15:16:19.282Z,18.37
2023-03-05T15:18:46.132Z,15.43
2023-03-05T15:21:13.059Z,12.77
2023-03-05T15:23:40.261Z,12.43
2023-03-05T15:26:08.545Z,11.77
2023-03-05T15:28:36.981Z,12.13
2023-03-05T15:31:04.829Z,15.83
2023-03-05T15:33:31.813Z,12.17
2023-03-05T15:35:58.648Z,243.10
2023-03-05T15:38:25.955Z,376.57
2023-03-05T15:40:52.851Z,235.00
2023-03-05T15:43:19.681Z,61.60
2023-03-05T15:45:46.809Z,16.47
2023-03-05T15:48:13.898Z,46.33
2023-03-05T15:50:43.033Z,95.67
2023-03-05T15:53:11.512Z,13.50
2023-03-05T15:55:39.174Z,9.17
2023-03-05T15:58:06.410Z,15.97
2023-03-05T16:00:34.824Z,13.17
2023-03-05T16:03:01.676Z,7.43
2023-03-05T16:05:28.662Z,7.93
2023-03-05T16:07:55.942Z,6.57
2023-03-05T16:10:25.517Z,6.27
2023-03-05T16:13:03.774Z,9.17
2023-03-05T16:15:31.862Z,16.13
2023-03-05T16:18:00.580Z,21.17
2023-03-05T16:20:27.587Z,19.07
2023-03-05T16:22:54.636Z,19.23
2023-03-05T16:25:22.246Z,11.57
2023-03-05T16:27:49.152Z,15.03
2023-03-05T16:30:16.532Z,13.37
2023-03-05T16:32:43.949Z,19.07
2023-03-05T16:35:12.527Z,26.87
2023-03-05T16:37:40.075Z,22.40
2023-03-05T16:40:08.615Z,26.93
2023-03-05T16:42:35.514Z,35.40
2023-03-05T16:45:02.520Z,29.93
2023-03-05T16:47:29.488Z,17.17
2023-03-05T16:49:56.361Z,17.57
2023-03-05T16:52:23.238Z,14.90
2023-03-05T16:54:50.077Z,18.93
2023-03-05T16:57:17.016Z,22.23
2023-03-05T16:59:44.070Z,20.83
2023-03-05T17:02:13.332Z,20.30
2023-03-05T17:04:40.209Z,18.90
2023-03-05T17:07:07.200Z,20.37
2023-03-05T17:09:34.266Z,24.07
2023-03-05T17:12:01.097Z,31.10
2023-03-05T17:14:28.045Z,31.67
2023-03-05T17:16:54.870Z,26.63
2023-03-05T17:19:21.745Z,33.77
2023-03-05T17:21:51.245Z,30.17
2023-03-05T17:24:20.853Z,28.13
2023-03-05T17:26:49.751Z,26.57
2023-03-05T17:29:16.610Z,32.17
2023-03-05T17:31:43.945Z,44.47
2023-03-05T17:34:10.871Z,44.60
2023-03-05T17:36:39.482Z,38.27
2023-03-05T17:39:06.334Z,35.77
2023-03-05T17:41:33.884Z,40.17
2023-03-05T17:44:01.294Z,34.23
2023-03-05T17:46:28.150Z,36.53
2023-03-05T17:48:55.062Z,38.63
2023-03-05T17:51:22.504Z,43.27
2023-03-05T17:53:49.544Z,36.00
2023-03-05T17:56:17.471Z,41.47
2023-03-05T17:58:44.329Z,41.47
2023-03-05T18:01:11.187Z,44.07
2023-03-05T18:03:38.159Z,42.97
2023-03-05T18:06:05.195Z,39.90
2023-03-05T18:08:32.443Z,41.43
2023-03-05T18:10:59.419Z,31.60
2023-03-05T18:13:26.417Z,29.97
2023-03-05T18:15:53.230Z,92.63
2023-03-05T18:18:20.038Z,126.67
2023-03-05T18:20:48.841Z,67.10
2023-03-05T18:23:15.706Z,83.53
2023-03-05T18:25:42.679Z,53.33
2023-03-05T18:28:10.450Z,32.00
2023-03-05T18:30:37.932Z,24.23
2023-03-05T18:33:04.987Z,16.80
2023-03-05T18:35:33.668Z,29.23
2023-03-05T18:38:00.817Z,79.37
2023-03-05T18:40:29.546Z,45.63
2023-03-05T18:42:56.418Z,46.20
2023-03-05T18:45:23.529Z,22.83
2023-03-05T18:47:54.220Z,68.77
2023-03-05T18:50:21.705Z,42.60
2023-03-05T18:52:48.715Z,33.67
2023-03-05T18:55:16.738Z,28.97
2023-03-05T18:57:43.571Z,43.00
2023-03-05T19:00:13.123Z,34.30
2023-03-05T19:02:40.034Z,27.47
2023-03-05T19:05:07.001Z,24.47
2023-03-05T19:07:35.312Z,27.73
2023-03-05T19:10:07.585Z,32.50
2023-03-05T19:12:38.389Z,32.73
2023-03-05T19:15:06.315Z,36.30
2023-03-05T19:17:33.104Z,29.77
2023-03-05T19:20:00.250Z,34.97
2023-03-05T19:22:28.681Z,32.50
2023-03-05T19:24:55.958Z,33.47
2023-03-05T19:27:22.874Z,22.87
2023-03-05T19:29:50.214Z,29.43
2023-03-05T19:32:18.115Z,35.57
2023-03-05T19:34:45.313Z,33.60
2023-03-05T19:37:12.631Z,48.87
2023-03-05T19:39:39.905Z,48.87
2023-03-05T19:42:07.038Z,42.03
2023-03-05T19:44:33.769Z,41.67
2023-03-05T19:47:00.621Z,36.30
2023-03-05T19:49:27.509Z,24.50
2023-03-05T19:51:54.288Z,23.77
2023-03-05T19:54:22.115Z,25.97
2023-03-05T19:56:49.148Z,22.17
2023-03-05T19:59:18.065Z,21.67
2023-03-05T20:01:46.373Z,20.20
2023-03-05T20:04:15.664Z,22.97
2023-03-05T20:06:43.074Z,23.00
2023-03-05T20:09:10.741Z,18.93
2023-03-05T20:11:37.730Z,20.17
2023-03-05T20:14:04.745Z,27.60
2023-03-05T20:16:32.852Z,22.13
2023-03-05T20:19:00.253Z,20.00
2023-03-05T20:21:28.829Z,19.50
2023-03-05T20:23:57.220Z,19.20
2023-03-05T20:26:26.024Z,16.10
2023-03-05T20:28:53.553Z,18.83
2023-03-05T20:31:21.469Z,18.77
2023-03-05T20:33:50.631Z,22.43
2023-03-05T20:36:18.091Z,16.10
2023-03-05T20:38:45.896Z,19.33
2023-03-05T20:41:14.616Z,17.67
2023-03-05T20:43:44.755Z,19.03
2023-03-05T20:46:19.408Z,23.57
2023-03-05T20:48:48.546Z,18.23
2023-03-05T20:51:17.017Z,19.43
2023-03-05T20:53:43.866Z,17.87
2023-03-05T20:56:10.714Z,19.97
2023-03-05T20:58:38.153Z,23.37
2023-03-05T21:01:05.360Z,20.23
2023-03-05T21:03:32.220Z,19.27
2023-03-05T21:05:59.116Z,24.07
2023-03-05T21:08:25.946Z,20.43
2023-03-05T21:10:52.934Z,21.00
2023-03-05T21:13:19.844Z,21.90
2023-03-05T21:15:46.717Z,22.13
2023-03-05T21:18:13.587Z,24.10
2023-03-05T21:20:41.151Z,21.23
2023-03-05T21:23:08.021Z,19.63
2023-03-05T21:25:35.262Z,19.03
2023-03-05T21:28:12.676Z,23.30
2023-03-05T21:30:42.297Z,25.77
2023-03-05T21:33:13.503Z,25.30
2023-03-05T21:35:40.648Z,24.17
2023-03-05T21:38:08.583Z,24.63
2023-03-05T21:40:36.208Z,20.77
2023-03-05T21:43:04.013Z,21.70
2023-03-05T21:45:31.412Z,19.53
2023-03-05T21:47:59.417Z,21.20
2023-03-05T21:50:26.421Z,21.83
2023-03-05T21:52:53.256Z,28.43
2023-03-05T21:55:23.224Z,22.43
2023-03-05T21:57:50.079Z,21.17
2023-03-05T22:00:22.719Z,28.53
2023-03-05T22:02:49.920Z,27.40
2023-03-05T22:05:16.869Z,32.73
2023-03-05T22:07:43.664Z,28.67
2023-03-05T22:10:18.509Z,35.23
2023-03-05T22:13:09.132Z,35.77
2023-03-05T22:15:43.344Z,39.77
2023-03-05T22:18:11.546Z,29.13
2023-03-05T22:20:38.976Z,25.03
2023-03-05T22:23:06.958Z,24.90
2023-03-05T22:25:34.711Z,22.00
2023-03-05T22:28:01.563Z,23.63
2023-03-05T22:30:28.499Z,24.53
2023-03-05T22:32:56.186Z,23.57
2023-03-05T22:35:23.092Z,26.10
2023-03-05T22:37:50.885Z,22.73
2023-03-05T22:40:19.779Z,25.53
2023-03-05T22:42:47.137Z,29.87
2023-03-05T22:45:15.764Z,26.73
2023-03-05T22:47:42.661Z,27.10
2023-03-05T22:50:09.926Z,26.43
2023-03-05T22:52:36.661Z,22.07
2023-03-05T22:55:04.717Z,20.53
2023-03-05T22:57:32.736Z,24.80
2023-03-05T22:59:59.713Z,20.10
2023-03-05T23:02:26.868Z,28.73
2023-03-05T23:04:56.516Z,21.87
2023-03-05T23:07:23.755Z,22.00
2023-03-05T23:09:53.361Z,20.43
2023-03-05T23:12:20.518Z,26.33
2023-03-05T23:14:48.200Z,24.90
2023-03-05T23:17:15.772Z,23.10
2023-03-05T23:19:42.932Z,19.27
2023-03-05T23:22:11.631Z,23.57
2023-03-05T23:24:38.598Z,25.23
2023-03-05T23:27:06.221Z,25.90
2023-03-05T23:29:48.373Z,27.70
2023-03-05T23:32:16.246Z,36.33
2023-03-05T23:34:43.901Z,22.10
2023-03-05T23:37:11.013Z,23.67
2023-03-05T23:39:38.039Z,19.07
2023-03-05T23:42:04.994Z,20.23
2023-03-05T23:44:31.898Z,21.07
2023-03-05T23:46:59.635Z,23.10
2023-03-05T23:49:26.730Z,21.00
2023-03-05T23:51:53.560Z,21.13
2023-03-05T23:54:20.317Z,25.80
2023-03-05T23:56:47.169Z,23.90
2023-03-05T23:59:14.077Z,26.63
